福岡 の空港の天気 - METARとTAF

福岡空港 ( RJFF / FUK ) - 福岡県福岡市
飛行場実況気象(Metar)
観測時間06/28 01:47 JST (06/27 16:47 UTC)
風向・風速北 1m/s
視程2300m
天気現象弱い雨 もや
全天の4割程度の雲 雲底高度 120m
全天の4割程度の雲 雲底高度 270m
全天の8割程度の雲 雲底高度 430m
気温23℃
湿度89%
気圧1011hPa
METARRJFF 271647Z AUTO 01001KT 2300 -RA BR SCT004 SCT009 BKN014 //////TCU 23/21 Q1011 RMK A2986 TCU 40KM E MOV UNKNOWN
過去の天気等 Google飛行場航空写真 Wunderground天気予報

過去48時間のMETAR

飛行場予報(TAF)
発表時間: 6/27 20:07 JST (6/27 11:07 UTC)
予報対象時間: 27日21時 JST ~ 29日3時 JST
風向・風速北北西 3m/s
視程8,000m
天気現象弱いしゅう雨
少しの雲 雲底高度 610m
全天の8割程度の雲 雲底高度 1,070m
27日21時 JST ~ 27日23時 JST に徐々に
風向・風速南南東 2m/s
27日22時 JST ~ 28日6時 JST に一時的に
視程4,000m
天気現象弱いしゅう雨 もや
少しの雲 雲底高度 150m
全天の8割程度の雲 雲底高度 240m
全天の8割程度の雲 雲底高度 460m
28日9時 JST ~ 28日12時 JST に徐々に
風向・風速北西 4m/s
28日21時 JST ~ 28日24時 JST に徐々に
風向・風速南南東 2m/s
TAF RJFF 271107Z 2712/2818 33005KT 8000 -SHRA FEW020 BKN035
BECMG 2712/2714 15004KT
TEMPO 2713/2721 4000 -SHRA BR FEW005 BKN008 BKN015
BECMG 2800/2803 32007KT
BECMG 2812/2815 15004KT
日本の空港のMETAR・TAFへのリンク

RJTT 東京国際空港
RJAA 新東京国際空港
RJBB 関西国際空港
RJOO 大阪空港
RJGG 中部国際空港
RJCC 新千歳空港
RJFF 福岡空港
ROAH 那覇空港


RJEC 旭川空港
RJCH 函館空港
RJCK 釧路空港
RJCM 女満別空港
RJCB 帯広空港
RJSA 青森空港
RJSS 仙台空港
RJSK 秋田空港
RJSF 福島空港
RJAH 茨城空港
RJSN 新潟空港
RJNT 富山空港
RJNK 小松飛行場
RJNS 静岡空港
RJOH 美保飛行場
RJOC 出雲空港
RJOB 岡山空港
RJOA 広島空港
RJOI 岩国飛行場
RJOT 高松空港
RJOM 松山空港
RJOK 高知空港
RJFR 北九州空港
RJFT 熊本空港
RJFU 長崎空港
RJFS 佐賀空港
RJFO 大分空港
RJFM 宮崎空港
RJFK 鹿児島空港
ROIG 石垣島空港
RJTY 横田飛行場
ROTM 普天間飛行場
RODN 嘉手納飛行場